sensor_id;sensor_type;location;lat;lon;timestamp;P1;durP1;ratioP1;P2;durP2;ratioP2
60714;SDS011;46564;53.096;8.246;2023-02-18T00:01:09;4.35;;;2.05;;
60714;SDS011;46564;53.096;8.246;2023-02-18T00:06:14;2.60;;;0.70;;
60714;SDS011;46564;53.096;8.246;2023-02-18T00:11:20;0.93;;;0.40;;
60714;SDS011;46564;53.096;8.246;2023-02-18T00:16:22;0.55;;;0.43;;
60714;SDS011;46564;53.096;8.246;2023-02-18T00:21:25;0.75;;;0.45;;
60714;SDS011;46564;53.096;8.246;2023-02-18T00:26:27;1.45;;;0.35;;
60714;SDS011;46564;53.096;8.246;2023-02-18T00:31:30;0.25;;;0.20;;
60714;SDS011;46564;53.096;8.246;2023-02-18T00:36:34;7.32;;;0.82;;
60714;SDS011;46564;53.096;8.246;2023-02-18T00:41:37;0.17;;;0.15;;
60714;SDS011;46564;53.096;8.246;2023-02-18T00:46:39;2.38;;;0.52;;
60714;SDS011;46564;53.096;8.246;2023-02-18T00:51:41;2.28;;;1.27;;
60714;SDS011;46564;53.096;8.246;2023-02-18T00:56:44;5.38;;;1.02;;
60714;SDS011;46564;53.096;8.246;2023-02-18T01:01:45;2.58;;;0.88;;
60714;SDS011;46564;53.096;8.246;2023-02-18T01:06:47;4.20;;;1.27;;
60714;SDS011;46564;53.096;8.246;2023-02-18T01:11:48;1.80;;;0.90;;
60714;SDS011;46564;53.096;8.246;2023-02-18T01:16:50;3.83;;;0.45;;
60714;SDS011;46564;53.096;8.246;2023-02-18T01:21:52;0.38;;;0.28;;
60714;SDS011;46564;53.096;8.246;2023-02-18T01:26:53;0.93;;;0.40;;
60714;SDS011;46564;53.096;8.246;2023-02-18T01:31:55;8.88;;;0.93;;
60714;SDS011;46564;53.096;8.246;2023-02-18T01:36:57;2.15;;;0.47;;
60714;SDS011;46564;53.096;8.246;2023-02-18T01:41:58;0.88;;;0.28;;
60714;SDS011;46564;53.096;8.246;2023-02-18T01:47:00;0.73;;;0.55;;
60714;SDS011;46564;53.096;8.246;2023-02-18T01:52:06;0.95;;;0.65;;
60714;SDS011;46564;53.096;8.246;2023-02-18T01:57:32;1.98;;;0.68;;
60714;SDS011;46564;53.096;8.246;2023-02-18T02:02:38;5.60;;;0.85;;
60714;SDS011;46564;53.096;8.246;2023-02-18T02:07:42;0.88;;;0.55;;
60714;SDS011;46564;53.096;8.246;2023-02-18T02:13:00;0.52;;;0.50;;
60714;SDS011;46564;53.096;8.246;2023-02-18T02:23:32;2.63;;;0.70;;
60714;SDS011;46564;53.096;8.246;2023-02-18T02:45:05;0.45;;;0.25;;
60714;SDS011;46564;53.096;8.246;2023-02-18T02:50:15;2.95;;;0.55;;
60714;SDS011;46564;53.096;8.246;2023-02-18T02:55:23;0.47;;;0.28;;
60714;SDS011;46564;53.096;8.246;2023-02-18T03:11:14;3.78;;;1.42;;
60714;SDS011;46564;53.096;8.246;2023-02-18T03:21:40;2.15;;;0.77;;
60714;SDS011;46564;53.096;8.246;2023-02-18T03:26:47;1.08;;;0.60;;
60714;SDS011;46564;53.096;8.246;2023-02-18T03:31:56;0.28;;;0.28;;
60714;SDS011;46564;53.096;8.246;2023-02-18T03:37:03;1.58;;;0.70;;
60714;SDS011;46564;53.096;8.246;2023-02-18T03:42:06;0.43;;;0.30;;
60714;SDS011;46564;53.096;8.246;2023-02-18T03:47:08;1.35;;;0.30;;
60714;SDS011;46564;53.096;8.246;2023-02-18T03:52:10;7.22;;;0.88;;
60714;SDS011;46564;53.096;8.246;2023-02-18T03:57:11;0.30;;;0.20;;
60714;SDS011;46564;53.096;8.246;2023-02-18T04:02:13;0.20;;;0.20;;
60714;SDS011;46564;53.096;8.246;2023-02-18T04:07:14;0.20;;;0.20;;
60714;SDS011;46564;53.096;8.246;2023-02-18T04:12:16;3.95;;;0.88;;
60714;SDS011;46564;53.096;8.246;2023-02-18T04:17:17;0.52;;;0.45;;
60714;SDS011;46564;53.096;8.246;2023-02-18T04:22:19;1.25;;;0.70;;
60714;SDS011;46564;53.096;8.246;2023-02-18T04:27:21;2.13;;;0.57;;
60714;SDS011;46564;53.096;8.246;2023-02-18T04:32:23;1.92;;;1.23;;
60714;SDS011;46564;53.096;8.246;2023-02-18T04:37:24;0.80;;;0.52;;
60714;SDS011;46564;53.096;8.246;2023-02-18T04:42:26;5.22;;;0.82;;
60714;SDS011;46564;53.096;8.246;2023-02-18T04:47:27;1.33;;;0.77;;
60714;SDS011;46564;53.096;8.246;2023-02-18T04:52:29;2.72;;;0.95;;
60714;SDS011;46564;53.096;8.246;2023-02-18T04:57:30;0.73;;;0.43;;
60714;SDS011;46564;53.096;8.246;2023-02-18T05:02:32;1.08;;;0.85;;
60714;SDS011;46564;53.096;8.246;2023-02-18T05:07:33;0.75;;;0.55;;
60714;SDS011;46564;53.096;8.246;2023-02-18T05:12:35;0.77;;;0.77;;
60714;SDS011;46564;53.096;8.246;2023-02-18T05:17:37;1.73;;;0.82;;
60714;SDS011;46564;53.096;8.246;2023-02-18T05:22:39;2.83;;;0.90;;
60714;SDS011;46564;53.096;8.246;2023-02-18T05:27:41;1.90;;;0.90;;
60714;SDS011;46564;53.096;8.246;2023-02-18T05:32:43;4.05;;;2.35;;
60714;SDS011;46564;53.096;8.246;2023-02-18T05:37:44;1.50;;;0.93;;
60714;SDS011;46564;53.096;8.246;2023-02-18T05:42:46;2.50;;;1.20;;
60714;SDS011;46564;53.096;8.246;2023-02-18T05:47:47;6.45;;;1.75;;
60714;SDS011;46564;53.096;8.246;2023-02-18T05:52:49;4.35;;;1.58;;
60714;SDS011;46564;53.096;8.246;2023-02-18T05:57:51;3.53;;;1.70;;
60714;SDS011;46564;53.096;8.246;2023-02-18T06:02:53;4.57;;;1.23;;
60714;SDS011;46564;53.096;8.246;2023-02-18T06:07:54;5.38;;;1.67;;
60714;SDS011;46564;53.096;8.246;2023-02-18T06:12:57;3.15;;;1.65;;
60714;SDS011;46564;53.096;8.246;2023-02-18T06:17:58;4.95;;;2.88;;
60714;SDS011;46564;53.096;8.246;2023-02-18T06:23:00;3.33;;;1.33;;
60714;SDS011;46564;53.096;8.246;2023-02-18T06:28:01;6.38;;;2.10;;
60714;SDS011;46564;53.096;8.246;2023-02-18T06:33:03;3.95;;;1.63;;
60714;SDS011;46564;53.096;8.246;2023-02-18T06:38:05;3.95;;;2.00;;
60714;SDS011;46564;53.096;8.246;2023-02-18T06:43:07;3.40;;;1.63;;
60714;SDS011;46564;53.096;8.246;2023-02-18T06:48:09;3.25;;;1.63;;
60714;SDS011;46564;53.096;8.246;2023-02-18T06:53:11;6.85;;;2.78;;
60714;SDS011;46564;53.096;8.246;2023-02-18T06:58:13;6.03;;;3.00;;
60714;SDS011;46564;53.096;8.246;2023-02-18T07:03:14;6.25;;;3.22;;
60714;SDS011;46564;53.096;8.246;2023-02-18T07:08:16;8.73;;;3.92;;
60714;SDS011;46564;53.096;8.246;2023-02-18T07:13:18;6.22;;;3.17;;
60714;SDS011;46564;53.096;8.246;2023-02-18T07:18:19;7.78;;;4.13;;
60714;SDS011;46564;53.096;8.246;2023-02-18T07:23:21;9.23;;;3.72;;
60714;SDS011;46564;53.096;8.246;2023-02-18T07:28:23;13.32;;;5.00;;
60714;SDS011;46564;53.096;8.246;2023-02-18T07:33:24;7.40;;;4.28;;
60714;SDS011;46564;53.096;8.246;2023-02-18T07:38:26;12.18;;;5.57;;
60714;SDS011;46564;53.096;8.246;2023-02-18T07:43:29;9.77;;;4.88;;
60714;SDS011;46564;53.096;8.246;2023-02-18T07:48:30;13.50;;;3.42;;
60714;SDS011;46564;53.096;8.246;2023-02-18T07:53:32;8.23;;;3.47;;
60714;SDS011;46564;53.096;8.246;2023-02-18T07:58:34;2.85;;;1.33;;
60714;SDS011;46564;53.096;8.246;2023-02-18T08:03:37;3.17;;;1.50;;
60714;SDS011;46564;53.096;8.246;2023-02-18T08:08:39;4.55;;;1.58;;
60714;SDS011;46564;53.096;8.246;2023-02-18T08:13:40;3.92;;;2.42;;
60714;SDS011;46564;53.096;8.246;2023-02-18T08:18:42;3.92;;;1.73;;
60714;SDS011;46564;53.096;8.246;2023-02-18T08:23:44;5.45;;;1.42;;
60714;SDS011;46564;53.096;8.246;2023-02-18T08:28:46;2.63;;;1.35;;
60714;SDS011;46564;53.096;8.246;2023-02-18T08:33:48;5.57;;;1.35;;
60714;SDS011;46564;53.096;8.246;2023-02-18T08:38:50;4.10;;;1.48;;
60714;SDS011;46564;53.096;8.246;2023-02-18T08:43:52;0.85;;;0.40;;
60714;SDS011;46564;53.096;8.246;2023-02-18T08:48:53;1.42;;;0.65;;
60714;SDS011;46564;53.096;8.246;2023-02-18T08:53:55;0.70;;;0.60;;
60714;SDS011;46564;53.096;8.246;2023-02-18T08:58:57;1.27;;;0.70;;
60714;SDS011;46564;53.096;8.246;2023-02-18T09:03:59;1.95;;;0.77;;
60714;SDS011;46564;53.096;8.246;2023-02-18T09:09:00;1.83;;;0.98;;
60714;SDS011;46564;53.096;8.246;2023-02-18T09:14:02;1.83;;;0.73;;
60714;SDS011;46564;53.096;8.246;2023-02-18T09:19:04;2.58;;;1.13;;
60714;SDS011;46564;53.096;8.246;2023-02-18T09:24:05;2.42;;;0.88;;
60714;SDS011;46564;53.096;8.246;2023-02-18T09:29:08;2.83;;;1.20;;
60714;SDS011;46564;53.096;8.246;2023-02-18T09:34:09;2.67;;;1.17;;
60714;SDS011;46564;53.096;8.246;2023-02-18T09:39:11;4.32;;;1.75;;
60714;SDS011;46564;53.096;8.246;2023-02-18T09:44:17;1.92;;;0.95;;
60714;SDS011;46564;53.096;8.246;2023-02-18T09:49:26;2.45;;;1.00;;
60714;SDS011;46564;53.096;8.246;2023-02-18T09:54:30;1.65;;;1.20;;
60714;SDS011;46564;53.096;8.246;2023-02-18T09:59:31;2.80;;;1.48;;
60714;SDS011;46564;53.096;8.246;2023-02-18T10:04:35;3.42;;;1.73;;
60714;SDS011;46564;53.096;8.246;2023-02-18T10:09:40;2.58;;;1.50;;
60714;SDS011;46564;53.096;8.246;2023-02-18T10:14:43;6.63;;;1.55;;
60714;SDS011;46564;53.096;8.246;2023-02-18T10:19:47;5.65;;;0.82;;
60714;SDS011;46564;53.096;8.246;2023-02-18T10:24:51;1.58;;;0.90;;
60714;SDS011;46564;53.096;8.246;2023-02-18T10:29:59;5.18;;;1.00;;
60714;SDS011;46564;53.096;8.246;2023-02-18T10:46:21;2.47;;;1.23;;
60714;SDS011;46564;53.096;8.246;2023-02-18T10:51:15;1.45;;;1.05;;
60714;SDS011;46564;53.096;8.246;2023-02-18T11:01:33;1.02;;;0.57;;
60714;SDS011;46564;53.096;8.246;2023-02-18T11:06:43;2.63;;;1.45;;
60714;SDS011;46564;53.096;8.246;2023-02-18T11:11:47;0.98;;;0.57;;
60714;SDS011;46564;53.096;8.246;2023-02-18T11:22:37;2.30;;;1.40;;
60714;SDS011;46564;53.096;8.246;2023-02-18T11:27:45;2.00;;;0.90;;
60714;SDS011;46564;53.096;8.246;2023-02-18T11:32:55;2.95;;;1.00;;
60714;SDS011;46564;53.096;8.246;2023-02-18T11:38:01;2.25;;;1.10;;
60714;SDS011;46564;53.096;8.246;2023-02-18T11:43:11;2.25;;;0.60;;
60714;SDS011;46564;53.096;8.246;2023-02-18T11:48:18;1.85;;;0.90;;
60714;SDS011;46564;53.096;8.246;2023-02-18T11:58:40;1.33;;;0.85;;
60714;SDS011;46564;53.096;8.246;2023-02-18T12:09:21;5.00;;;1.75;;
60714;SDS011;46564;53.096;8.246;2023-02-18T12:14:29;2.40;;;1.35;;
60714;SDS011;46564;53.096;8.246;2023-02-18T12:19:43;5.28;;;1.48;;
60714;SDS011;46564;53.096;8.246;2023-02-18T12:25:05;1.50;;;0.82;;
60714;SDS011;46564;53.096;8.246;2023-02-18T12:41:22;0.95;;;0.55;;
60714;SDS011;46564;53.096;8.246;2023-02-18T13:19:22;0.40;;;0.40;;
60714;SDS011;46564;53.096;8.246;2023-02-18T13:24:32;1.88;;;0.43;;
60714;SDS011;46564;53.096;8.246;2023-02-18T13:29:43;5.18;;;0.40;;
60714;SDS011;46564;53.096;8.246;2023-02-18T13:35:16;1.70;;;0.57;;
60714;SDS011;46564;53.096;8.246;2023-02-18T13:40:22;3.60;;;1.48;;
60714;SDS011;46564;53.096;8.246;2023-02-18T13:45:29;3.55;;;0.85;;
60714;SDS011;46564;53.096;8.246;2023-02-18T13:50:38;1.73;;;0.75;;
60714;SDS011;46564;53.096;8.246;2023-02-18T14:00:48;1.20;;;0.45;;
60714;SDS011;46564;53.096;8.246;2023-02-18T14:05:54;9.40;;;1.05;;
60714;SDS011;46564;53.096;8.246;2023-02-18T14:16:13;2.40;;;0.50;;
60714;SDS011;46564;53.096;8.246;2023-02-18T14:21:17;6.10;;;0.50;;
60714;SDS011;46564;53.096;8.246;2023-02-18T14:26:22;4.57;;;0.93;;
60714;SDS011;46564;53.096;8.246;2023-02-18T14:36:45;0.93;;;0.47;;
60714;SDS011;46564;53.096;8.246;2023-02-18T14:47:28;1.13;;;0.43;;
60714;SDS011;46564;53.096;8.246;2023-02-18T14:52:37;2.33;;;0.77;;
60714;SDS011;46564;53.096;8.246;2023-02-18T14:57:53;2.25;;;0.55;;
60714;SDS011;46564;53.096;8.246;2023-02-18T15:03:00;1.75;;;0.85;;
60714;SDS011;46564;53.096;8.246;2023-02-18T15:08:21;1.30;;;0.70;;
60714;SDS011;46564;53.096;8.246;2023-02-18T15:13:32;0.75;;;0.35;;
60714;SDS011;46564;53.096;8.246;2023-02-18T15:18:37;3.17;;;0.75;;
60714;SDS011;46564;53.096;8.246;2023-02-18T15:23:41;0.20;;;0.20;;
60714;SDS011;46564;53.096;8.246;2023-02-18T15:28:53;2.50;;;0.50;;
60714;SDS011;46564;53.096;8.246;2023-02-18T15:33:59;2.75;;;0.57;;
60714;SDS011;46564;53.096;8.246;2023-02-18T15:39:01;1.13;;;0.70;;
60714;SDS011;46564;53.096;8.246;2023-02-18T15:44:04;0.85;;;0.50;;
60714;SDS011;46564;53.096;8.246;2023-02-18T15:49:08;1.48;;;0.63;;
60714;SDS011;46564;53.096;8.246;2023-02-18T15:54:17;0.70;;;0.20;;
60714;SDS011;46564;53.096;8.246;2023-02-18T15:59:26;5.57;;;0.40;;
60714;SDS011;46564;53.096;8.246;2023-02-18T16:04:44;5.78;;;0.95;;
60714;SDS011;46564;53.096;8.246;2023-02-18T16:10:34;0.80;;;0.55;;
60714;SDS011;46564;53.096;8.246;2023-02-18T16:15:22;0.57;;;0.52;;
60714;SDS011;46564;53.096;8.246;2023-02-18T16:25:35;0.65;;;0.57;;
60714;SDS011;46564;53.096;8.246;2023-02-18T16:30:42;1.40;;;0.43;;
60714;SDS011;46564;53.096;8.246;2023-02-18T16:35:46;3.28;;;0.82;;
60714;SDS011;46564;53.096;8.246;2023-02-18T16:40:51;5.32;;;1.33;;
60714;SDS011;46564;53.096;8.246;2023-02-18T16:45:55;0.95;;;0.63;;
60714;SDS011;46564;53.096;8.246;2023-02-18T16:50:59;0.50;;;0.50;;
60714;SDS011;46564;53.096;8.246;2023-02-18T16:56:13;3.03;;;0.65;;
60714;SDS011;46564;53.096;8.246;2023-02-18T17:01:21;2.08;;;1.42;;
60714;SDS011;46564;53.096;8.246;2023-02-18T17:06:25;1.20;;;0.35;;
60714;SDS011;46564;53.096;8.246;2023-02-18T17:11:31;3.55;;;0.55;;
60714;SDS011;46564;53.096;8.246;2023-02-18T17:16:52;4.63;;;0.77;;
60714;SDS011;46564;53.096;8.246;2023-02-18T17:21:57;0.52;;;0.32;;
60714;SDS011;46564;53.096;8.246;2023-02-18T17:27:17;4.28;;;1.65;;
60714;SDS011;46564;53.096;8.246;2023-02-18T17:32:28;1.92;;;0.82;;
60714;SDS011;46564;53.096;8.246;2023-02-18T17:37:43;1.02;;;0.52;;
60714;SDS011;46564;53.096;8.246;2023-02-18T17:43:04;9.27;;;1.15;;
60714;SDS011;46564;53.096;8.246;2023-02-18T17:48:32;2.05;;;0.80;;
60714;SDS011;46564;53.096;8.246;2023-02-18T17:54:18;2.03;;;0.70;;
60714;SDS011;46564;53.096;8.246;2023-02-18T18:07:18;0.70;;;0.57;;
60714;SDS011;46564;53.096;8.246;2023-02-18T18:12:50;0.40;;;0.40;;
60714;SDS011;46564;53.096;8.246;2023-02-18T18:18:18;0.52;;;0.40;;
60714;SDS011;46564;53.096;8.246;2023-02-18T18:24:22;1.10;;;0.38;;
60714;SDS011;46564;53.096;8.246;2023-02-18T18:35:57;2.75;;;0.82;;
60714;SDS011;46564;53.096;8.246;2023-02-18T18:41:52;1.25;;;0.52;;
60714;SDS011;46564;53.096;8.246;2023-02-18T18:53:52;2.33;;;0.90;;
60714;SDS011;46564;53.096;8.246;2023-02-18T19:00:00;0.82;;;0.57;;
60714;SDS011;46564;53.096;8.246;2023-02-18T19:05:38;1.45;;;0.55;;
60714;SDS011;46564;53.096;8.246;2023-02-18T19:11:04;0.57;;;0.30;;
60714;SDS011;46564;53.096;8.246;2023-02-18T19:16:46;1.35;;;0.47;;
60714;SDS011;46564;53.096;8.246;2023-02-18T19:23:02;1.58;;;0.60;;
60714;SDS011;46564;53.096;8.246;2023-02-18T19:28:05;0.38;;;0.38;;
60714;SDS011;46564;53.096;8.246;2023-02-18T19:34:28;2.28;;;1.02;;
60714;SDS011;46564;53.096;8.246;2023-02-18T19:39:57;1.00;;;0.45;;
60714;SDS011;46564;53.096;8.246;2023-02-18T19:45:48;1.42;;;0.63;;
60714;SDS011;46564;53.096;8.246;2023-02-18T19:57:49;1.50;;;0.93;;
60714;SDS011;46564;53.096;8.246;2023-02-18T20:09:18;2.90;;;0.47;;
60714;SDS011;46564;53.096;8.246;2023-02-18T20:28:46;7.95;;;1.92;;
60714;SDS011;46564;53.096;8.246;2023-02-18T20:34:29;1.35;;;1.23;;
60714;SDS011;46564;53.096;8.246;2023-02-18T20:40:42;1.65;;;0.57;;
60714;SDS011;46564;53.096;8.246;2023-02-18T20:46:38;1.40;;;0.90;;
60714;SDS011;46564;53.096;8.246;2023-02-18T21:07:14;0.55;;;0.50;;
60714;SDS011;46564;53.096;8.246;2023-02-18T21:19:00;1.85;;;1.13;;
60714;SDS011;46564;53.096;8.246;2023-02-18T21:25:06;2.47;;;1.35;;
60714;SDS011;46564;53.096;8.246;2023-02-18T21:38:14;0.93;;;0.45;;
60714;SDS011;46564;53.096;8.246;2023-02-18T21:51:04;1.20;;;0.82;;
60714;SDS011;46564;53.096;8.246;2023-02-18T22:03:59;3.15;;;1.67;;
60714;SDS011;46564;53.096;8.246;2023-02-18T22:22:23;1.15;;;0.90;;
60714;SDS011;46564;53.096;8.246;2023-02-18T22:41:12;2.22;;;0.93;;
60714;SDS011;46564;53.096;8.246;2023-02-18T22:46:53;3.03;;;1.38;;
60714;SDS011;46564;53.096;8.246;2023-02-18T22:52:36;2.55;;;1.38;;
60714;SDS011;46564;53.096;8.246;2023-02-18T23:05:31;1.88;;;1.08;;
60714;SDS011;46564;53.096;8.246;2023-02-18T23:11:50;2.35;;;1.33;;
60714;SDS011;46564;53.096;8.246;2023-02-18T23:24:06;3.58;;;1.17;;
60714;SDS011;46564;53.096;8.246;2023-02-18T23:36:54;1.52;;;0.77;;
60714;SDS011;46564;53.096;8.246;2023-02-18T23:42:53;1.58;;;0.82;;
60714;SDS011;46564;53.096;8.246;2023-02-18T23:48:40;1.42;;;0.82;;
60714;SDS011;46564;53.096;8.246;2023-02-18T23:54:59;1.25;;;0.70;;
